Aeroporto :
LOGIN :

Iscrizione | Disclaimer

   EN    FR    IT 

 










Sommario :    VFR   VFR Marginale   IFR   IFR Intensivo   IFR Molto Intensivo
Visibilità : 
Base nubi : 
>= 8 km
>= 3000ft
5 / 8 km
1000 / 3000 ft
1500m / 5 km
500 / 1000 ft
800 / 1500m
200 / 500 ft
< 800m
< 200 ft
Simboli :   Temporali  Nebbia  Neve Forte  Precipitazioni Forti  Vento > 20 kt
SIGMETs :   Varie  Temporali  Ghiacco  Turbolenza  Onda orograficha  Ceneri Vulcaniche






- Altitudine del aeroporto : 308 ft
- Codice IATA : MHG


EDFM - Mannheim-City

ULTIMO METAR :
  • 221550Z VRB03KT 4500 BR OVC005 M01/M02 Q1035

METARs OBSOLETI :
  • 221520Z VRB03KT 5000 BR OVC006 M01/M02 Q1035
  • 221450Z VRB02KT 5000 BR OVC006 M01/M02 Q1035
  • 221420Z VRB01KT 4400 BR OVC005 M01/M02 Q1035
  • 221350Z VRB01KT 4300 BR OVC005 M01/M02 Q1035
  • 221320Z 36004KT 330V030 4100 BR OVC005 M01/M02 Q1036

TAF TAF EDFM
Valido dal 22 a 15 ore il 22 a 21 ore UTC


221400Z 2215/2221 VRB03KT 6000 OVC005
TEMPO 2215/2221 3000 BR OVC003
BECMG 2217/2219 BKN010
PROB30
TEMPO 2219/2221 -FZDZ



MetMap, La meteo Aeronautica in un colpo d'occhio ! - Copyright ORBIFLY Dicembre 2007 - Disclaimer

ORBIFLY MET'MAP TEAM :

Programmazione e sviluppo : Alexandra Zaïnal
Concezione : Baudouin d'Aumeries
Aiuto per la programmazione : Marc-Olivier Méhu
Supporto tecnico e logistico : Manuel Goepfert
Aiuto per la traduzione : Arnaldo La Scala

Contatto : metmap@orbifly.com




FONTI E CREDITI :

   NOAA